Time;durP1;ratioP1;P1;durP2;ratioP2;P2;SDS_P1;SDS_P2;PMS_P1;PMS_P2;Temp;Humidity;BMP_temperature;BMP_pressure;BME280_temperature;BME280_humidity;BME280_pressure;Samples;Min_cycle;Max_cycle;Signal;HPM_P1;HPM_P2
2022/05/06 00:02:24;;;;;;;2.12;1.92;;;;;;;19.31;46.84;100797.27;1782134;80;21038;-69
2022/05/06 00:04:51;;;;;;;2.27;2.08;;;;;;;19.30;46.84;100790.23;1778568;80;21093;-69
2022/05/06 00:07:18;;;;;;;2.27;2.08;;;;;;;19.30;46.83;100788.06;1778891;80;21522;-69
2022/05/06 00:09:45;;;;;;;1.62;1.52;;;;;;;19.29;46.82;100790.42;1778529;80;21050;-68
2022/05/06 00:12:18;;;;;;;1.50;1.40;;;;;;;19.27;46.84;100791.97;1777590;80;21143;-68
2022/05/06 00:14:41;;;;;;;2.40;2.20;;;;;;;19.27;46.85;100796.53;1777730;80;21506;-69
2022/05/06 00:17:07;;;;;;;2.17;1.92;;;;;;;19.27;46.83;100799.23;1778684;80;21017;-69
2022/05/06 00:19:34;;;;;;;1.87;1.77;;;;;;;19.25;46.91;100800.77;1778549;80;21002;-68
2022/05/06 00:22:01;;;;;;;2.10;1.90;;;;;;;19.24;46.86;100805.33;1778680;80;21537;-69
2022/05/06 00:24:28;;;;;;;2.12;1.92;;;;;;;19.23;46.86;100799.61;1778762;80;21149;-68
2022/05/06 00:26:57;;;;;;;1.85;1.75;;;;;;;19.23;46.88;100806.87;1777371;80;21077;-68
2022/05/06 00:29:24;;;;;;;1.85;1.75;;;;;;;19.22;46.83;100803.88;1778577;80;21025;-68
2022/05/06 00:31:51;;;;;;;2.30;2.10;;;;;;;19.20;46.84;100800.03;1778493;80;21347;-69
2022/05/06 00:34:18;;;;;;;2.12;1.80;;;;;;;19.20;46.86;100804.07;1778583;80;21069;-69
2022/05/06 00:36:44;;;;;;;1.98;1.82;;;;;;;19.20;46.84;100803.22;1778519;80;21144;-69
2022/05/06 00:39:11;;;;;;;1.95;1.75;;;;;;;19.19;46.85;100803.73;1778561;80;21026;-69
2022/05/06 00:41:37;;;;;;;1.67;1.57;;;;;;;19.18;46.83;100803.94;1778584;80;21795;-68
2022/05/06 00:44:07;;;;;;;2.10;1.90;;;;;;;19.17;46.83;100800.94;1777466;80;21038;-69
2022/05/06 00:46:36;;;;;;;1.92;1.72;;;;;;;19.15;46.85;100801.12;1778501;80;21499;-69
2022/05/06 00:49:02;;;;;;;2.45;2.00;;;;;;;19.16;46.85;100805.99;1778578;80;21389;-68
2022/05/06 00:51:30;;;;;;;2.02;1.85;;;;;;;19.14;46.84;100800.83;1778592;80;21030;-68
2022/05/06 00:53:57;;;;;;;2.08;1.85;;;;;;;19.14;46.86;100798.14;1778656;80;21046;-68
2022/05/06 00:56:26;;;;;;;1.95;1.77;;;;;;;19.13;46.85;100796.98;1778642;80;21058;-68
2022/05/06 00:58:53;;;;;;;2.10;1.87;;;;;;;19.12;46.83;100793.95;1778747;80;21581;-68
2022/05/06 01:01:20;;;;;;;2.37;1.67;;;;;;;19.12;46.89;100795.30;1777418;80;21236;-68
2022/05/06 01:03:47;;;;;;;2.15;1.95;;;;;;;19.09;46.81;100791.16;1789364;80;21029;-68
2022/05/06 01:06:14;;;;;;;2.15;1.95;;;;;;;19.10;46.86;100793.33;1793622;80;20998;-68
2022/05/06 01:08:43;;;;;;;2.20;1.85;;;;;;;19.08;46.83;100790.83;1793457;80;21001;-69
2022/05/06 01:11:12;;;;;;;2.20;2.00;;;;;;;19.07;46.84;100793.22;1793610;80;20986;-68
2022/05/06 01:13:45;;;;;;;2.50;2.30;;;;;;;19.07;46.83;100795.09;1793483;80;21091;-68
2022/05/06 01:16:14;;;;;;;1.95;1.80;;;;;;;19.04;46.83;100793.11;1793223;80;21029;-68
2022/05/06 01:18:42;;;;;;;2.10;1.90;;;;;;;19.03;46.85;100790.09;1799005;79;21030;-69
2022/05/06 01:21:09;;;;;;;2.20;2.00;;;;;;;19.02;46.84;100797.02;1815450;79;21485;-69
2022/05/06 01:23:37;;;;;;;1.98;1.70;;;;;;;19.01;46.85;100793.50;1815354;79;20990;-68
2022/05/06 01:26:06;;;;;;;1.90;1.65;;;;;;;19.01;46.87;100798.06;1811164;79;21153;-68
2022/05/06 01:28:35;;;;;;;2.00;1.90;;;;;;;19.00;46.85;100799.89;1815338;79;21470;-68
2022/05/06 01:31:02;;;;;;;2.35;1.60;;;;;;;19.00;46.83;100798.55;1815349;79;21041;-68
2022/05/06 01:33:31;;;;;;;1.90;1.60;;;;;;;18.99;46.84;100800.12;1815274;79;21475;-69
2022/05/06 01:36:06;;;;;;;2.08;1.77;;;;;;;18.97;46.83;100800.31;1790217;79;21096;-68
2022/05/06 01:38:49;;;;;;;2.02;1.82;;;;;;;18.97;46.85;100800.31;1762218;80;21252;-68
2022/05/06 01:41:22;;;;;;;2.08;1.90;;;;;;;18.96;46.84;100798.63;1762606;81;21095;-68
2022/05/06 01:44:04;;;;;;;1.92;1.70;;;;;;;18.95;46.87;100798.82;1760259;81;21028;-69
2022/05/06 01:46:31;;;;;;;1.95;1.75;;;;;;;18.94;46.88;100807.42;1761703;81;20986;-69
2022/05/06 01:49:00;;;;;;;2.30;2.10;;;;;;;18.92;46.84;100800.58;1761903;81;21526;-68
2022/05/06 01:51:28;;;;;;;2.08;1.92;;;;;;;18.90;46.88;100799.95;1762256;81;21988;-69
2022/05/06 01:53:56;;;;;;;2.00;1.85;;;;;;;18.89;46.88;100799.13;1790593;79;21049;-69
2022/05/06 01:56:23;;;;;;;1.92;1.75;;;;;;;18.89;46.87;100805.86;1793554;80;20997;-69
2022/05/06 01:58:50;;;;;;;1.85;1.75;;;;;;;18.87;46.87;100809.23;1793468;79;21077;-68
2022/05/06 02:01:17;;;;;;;1.98;1.87;;;;;;;18.87;46.90;100809.23;1791848;80;21001;-69
2022/05/06 02:06:31;;;;;;;2.20;2.00;;;;;;;18.85;46.89;100811.28;1747643;82;21030;-69
2022/05/06 02:09:00;;;;;;;2.10;1.90;;;;;;;18.85;46.88;100815.33;1748033;80;21002;-69
2022/05/06 02:11:28;;;;;;;2.10;1.70;;;;;;;18.84;46.90;100817.72;1777383;80;21045;-68
2022/05/06 02:13:55;;;;;;;2.30;2.10;;;;;;;18.83;46.92;100817.38;1778476;80;21077;-69
2022/05/06 02:18:26;;;;;;;2.20;2.00;;;;;;;18.86;46.86;100811.09;1870323;76;22583;-69
2022/05/06 02:21:13;;;;;;;2.17;1.98;;;;;;;18.81;46.90;100812.72;1791602;78;21006;-68
2022/05/06 02:23:53;;;;;;;2.08;1.87;;;;;;;18.81;46.87;100812.72;1825200;78;21140;-69
2022/05/06 02:26:27;;;;;;;2.22;1.82;;;;;;;18.79;46.87;100814.73;1817521;78;20941;-69
2022/05/06 02:28:56;;;;;;;1.67;1.57;;;;;;;18.77;46.89;100819.48;1758570;81;21036;-68
2022/05/06 02:34:16;;;;;;;2.10;1.90;;;;;;;18.75;46.94;100817.51;1748166;82;21488;-68
2022/05/06 02:36:39;;;;;;;2.12;1.92;;;;;;;18.74;46.93;100818.03;1747572;82;21163;-68
2022/05/06 02:39:06;;;;;;;1.90;1.72;;;;;;;18.74;46.94;100822.06;1777706;80;21467;-68
2022/05/06 02:41:35;;;;;;;1.90;1.80;;;;;;;18.73;46.92;100826.30;1778951;80;21017;-69
2022/05/06 02:44:04;;;;;;;1.92;1.82;;;;;;;18.72;46.92;100832.72;1778429;80;20986;-68
2022/05/06 02:46:33;;;;;;;2.22;2.02;;;;;;;18.71;46.93;100833.21;1778308;80;21010;-69
2022/05/06 02:49:02;;;;;;;2.08;1.87;;;;;;;18.71;46.92;100825.66;1779085;80;21858;-69
2022/05/06 02:51:29;;;;;;;2.15;1.57;;;;;;;18.71;46.93;100829.70;1779134;80;21033;-68
2022/05/06 02:53:56;;;;;;;1.75;1.60;;;;;;;18.69;46.93;100824.50;1779168;80;21033;-68
2022/05/06 02:56:25;;;;;;;2.12;1.92;;;;;;;18.69;46.93;100823.16;1778356;80;21545;-68
2022/05/06 02:58:53;;;;;;;1.70;1.55;;;;;;;18.69;46.94;100822.33;1778752;80;21093;-69
2022/05/06 03:01:20;;;;;;;2.20;2.00;;;;;;;18.68;46.91;100822.85;1777983;80;21556;-69
2022/05/06 03:03:49;;;;;;;1.85;1.75;;;;;;;18.67;46.93;100819.30;1778866;80;21073;-69
2022/05/06 03:06:18;;;;;;;2.12;1.95;;;;;;;18.67;46.96;100818.48;1779042;80;21057;-68
2022/05/06 03:08:45;;;;;;;1.87;1.55;;;;;;;18.67;46.94;100823.86;1779246;80;21030;-69
2022/05/06 03:11:12;;;;;;;2.75;1.98;;;;;;;18.66;46.96;100820.34;1778993;80;21006;-68
2022/05/06 03:13:41;;;;;;;2.08;1.87;;;;;;;18.65;46.93;100815.98;1777791;80;22160;-69
2022/05/06 03:16:09;;;;;;;1.85;1.72;;;;;;;18.65;46.92;100825.92;1779057;80;21517;-69
2022/05/06 03:18:36;;;;;;;1.98;1.80;;;;;;;18.65;46.93;100829.44;1777771;79;20970;-69
2022/05/06 03:21:02;;;;;;;1.67;1.57;;;;;;;18.64;46.91;100826.97;1779212;80;21486;-68
2022/05/06 03:23:30;;;;;;;1.90;1.60;;;;;;;18.63;46.94;100827.45;1779059;80;21025;-69
2022/05/06 03:25:57;;;;;;;1.82;1.60;;;;;;;18.63;46.94;100830.14;1778817;80;21249;-68
2022/05/06 03:28:23;;;;;;;1.98;1.77;;;;;;;18.64;46.91;100840.42;1778718;80;21013;-68
2022/05/06 03:30:50;;;;;;;1.90;1.80;;;;;;;18.64;46.97;100839.08;1746478;80;21026;-69
2022/05/06 03:33:22;;;;;;;2.25;1.87;;;;;;;18.63;46.93;100835.53;1776477;80;21050;-69
2022/05/06 03:35:49;;;;;;;1.80;1.70;;;;;;;18.63;46.91;100834.70;1777262;80;21017;-69
2022/05/06 03:38:16;;;;;;;1.92;1.80;;;;;;;18.62;46.92;100843.30;1778509;80;21786;-69
2022/05/06 03:40:44;;;;;;;1.92;1.70;;;;;;;18.62;46.92;100847.34;1778429;80;21522;-68
2022/05/06 03:43:11;;;;;;;1.90;1.80;;;;;;;18.62;46.92;100839.75;1778559;80;21133;-68
2022/05/06 03:45:39;;;;;;;1.95;1.75;;;;;;;18.61;46.93;100845.66;1778337;80;21100;-69
2022/05/06 03:48:06;;;;;;;1.70;1.60;;;;;;;18.61;46.93;100847.00;1778505;80;20998;-68
2022/05/06 03:53:19;;;;;;;2.20;2.00;;;;;;;18.61;46.90;100856.42;1778339;80;21159;-69
2022/05/06 03:55:48;;;;;;;2.65;1.72;;;;;;;18.62;46.89;100854.06;1778803;80;21026;-68
2022/05/06 03:58:14;;;;;;;2.60;1.95;;;;;;;18.62;46.88;100862.14;1778295;80;20998;-69
2022/05/06 04:00:41;;;;;;;1.82;1.72;;;;;;;18.61;46.91;100857.77;1778319;80;21624;-68
2022/05/06 04:03:08;;;;;;;2.10;1.82;;;;;;;18.63;46.91;100861.62;1778366;80;21140;-69
2022/05/06 04:05:35;;;;;;;1.75;1.50;;;;;;;18.63;46.89;100866.48;1778327;80;21030;-69
2022/05/06 04:08:03;;;;;;;3.00;1.92;;;;;;;18.65;46.88;100865.77;1777357;80;21470;-68
2022/05/06 04:10:30;;;;;;;1.62;1.52;;;;;;;18.65;46.85;100867.11;1778371;80;20998;-68
2022/05/06 04:12:57;;;;;;;1.72;1.62;;;;;;;18.66;46.83;100855.86;1778274;80;21077;-69
2022/05/06 04:15:23;;;;;;;1.55;1.45;;;;;;;18.67;46.83;100860.20;1778359;80;21123;-69
2022/05/06 04:17:51;;;;;;;2.22;2.02;;;;;;;18.68;46.82;100865.92;1778203;80;21493;-68
2022/05/06 04:25:51;;;;;;;2.15;1.95;;;;;;;18.70;46.80;100862.52;1777321;79;21536;-69
2022/05/06 04:28:19;;;;;;;1.98;1.77;;;;;;;18.71;46.80;100864.69;1778430;80;21314;-68
2022/05/06 04:30:47;;;;;;;1.82;1.70;;;;;;;18.71;46.83;100869.55;1778222;80;21069;-69
2022/05/06 04:33:17;;;;;;;2.58;2.27;;;;;;;18.72;46.79;100868.53;1778326;80;21010;-69
2022/05/06 04:35:46;;;;;;;2.47;2.27;;;;;;;18.74;46.81;100867.00;1778481;80;21049;-69
2022/05/06 04:38:13;;;;;;;2.37;1.87;;;;;;;18.75;46.81;100871.34;1778625;80;21026;-69
2022/05/06 04:40:40;;;;;;;2.37;2.17;;;;;;;18.76;46.81;100874.37;1778296;80;21966;-68
2022/05/06 04:43:08;;;;;;;2.85;2.00;;;;;;;18.77;46.80;100872.80;1777378;80;21081;-70
2022/05/06 04:45:38;;;;;;;2.25;2.05;;;;;;;18.78;46.80;100873.13;1778688;80;21329;-69
2022/05/06 04:48:07;;;;;;;3.05;2.75;;;;;;;18.80;46.80;100878.36;1778326;80;21462;-69
2022/05/06 04:50:38;;;;;;;2.85;2.52;;;;;;;18.81;46.79;100887.59;1778384;80;21050;-68
2022/05/06 04:53:09;;;;;;;2.70;2.50;;;;;;;18.82;46.79;100889.77;1778372;80;21140;-69
2022/05/06 04:55:38;;;;;;;3.60;3.00;;;;;;;18.83;46.78;100881.50;1778381;80;20990;-69
2022/05/06 04:58:06;;;;;;;3.67;3.08;;;;;;;18.84;46.79;100883.67;1778578;80;21538;-68
2022/05/06 05:00:33;;;;;;;3.45;3.15;;;;;;;18.86;46.76;100888.34;1777240;80;21021;-69
2022/05/06 05:03:00;;;;;;;3.77;3.30;;;;;;;18.86;46.75;100884.31;1777400;80;21038;-69
2022/05/06 05:05:28;;;;;;;3.95;3.50;;;;;;;18.88;46.74;100885.47;1778533;79;21937;-69
2022/05/06 05:07:54;;;;;;;3.92;3.55;;;;;;;18.89;46.76;100885.77;1778190;80;21010;-69
2022/05/06 05:10:22;;;;;;;4.17;3.77;;;;;;;18.91;46.73;100885.06;1778356;79;21077;-69
2022/05/06 05:12:49;;;;;;;4.45;3.75;;;;;;;18.92;46.72;100891.60;1778305;80;21029;-70
2022/05/06 05:15:16;;;;;;;3.85;3.45;;;;;;;18.94;46.71;100890.06;1778347;79;21010;-68
2022/05/06 05:17:45;;;;;;;4.85;4.22;;;;;;;18.94;46.70;100888.20;1754558;80;21242;-69
2022/05/06 05:20:12;;;;;;;4.95;3.77;;;;;;;18.95;46.68;100883.14;1747761;82;21054;-69
2022/05/06 05:22:40;;;;;;;4.20;3.80;;;;;;;18.97;46.68;100881.09;1747374;82;21068;-69
2022/05/06 05:25:09;;;;;;;5.03;4.53;;;;;;;18.98;46.69;100884.60;1747389;81;21042;-70
2022/05/06 05:27:36;;;;;;;4.83;4.30;;;;;;;18.99;46.66;100888.98;1747487;82;21066;-69
2022/05/06 05:30:08;;;;;;;4.45;4.03;;;;;;;19.00;46.68;100889.28;1747405;82;21150;-69
2022/05/06 05:32:37;;;;;;;4.62;4.12;;;;;;;19.02;46.65;100889.91;1747462;82;21053;-68
2022/05/06 05:35:05;;;;;;;4.83;4.20;;;;;;;19.04;46.65;100889.20;1748442;80;20994;-68
2022/05/06 05:37:34;;;;;;;4.55;4.10;;;;;;;19.05;46.65;100890.87;1757437;80;21062;-69
2022/05/06 05:40:05;;;;;;;4.28;3.87;;;;;;;19.06;46.63;100892.53;1778224;80;21018;-69
2022/05/06 05:42:33;;;;;;;5.85;4.35;;;;;;;19.09;46.62;100898.06;1747829;80;21124;-69
2022/05/06 05:50:36;;;;;;;4.83;4.33;;;;;;;19.12;46.62;100901.16;1777503;80;21026;-69
2022/05/06 05:53:05;;;;;;;7.40;5.20;;;;;;;19.13;46.62;100904.72;1778229;80;21220;-69
2022/05/06 05:55:33;;;;;;;4.92;4.30;;;;;;;19.14;46.63;100896.45;1778245;80;21147;-69
2022/05/06 05:58:01;;;;;;;5.08;4.58;;;;;;;19.16;46.64;100890.84;1747514;80;21030;-69
2022/05/06 06:00:27;;;;;;;5.83;4.50;;;;;;;19.17;46.62;100896.03;1778249;80;21069;-69
2022/05/06 06:02:56;;;;;;;5.45;4.85;;;;;;;19.19;46.67;100901.23;1778245;80;21572;-69
2022/05/06 06:05:23;;;;;;;4.90;4.22;;;;;;;19.19;46.69;100899.36;1778205;80;21081;-69
2022/05/06 06:07:50;;;;;;;4.95;4.45;;;;;;;19.21;46.67;100889.74;1777172;79;21237;-70
2022/05/06 06:10:18;;;;;;;4.50;4.10;;;;;;;19.22;46.68;100884.69;1778600;80;21022;-70
2022/05/06 06:12:45;;;;;;;5.05;4.28;;;;;;;19.23;46.66;100882.30;1778561;80;21046;-70
2022/05/06 06:15:13;;;;;;;4.33;3.90;;;;;;;19.24;46.67;100888.02;1778285;80;21006;-70
2022/05/06 06:17:40;;;;;;;4.78;4.28;;;;;;;19.25;46.70;100889.14;1778136;80;21114;-69
2022/05/06 06:20:09;;;;;;;5.20;4.20;;;;;;;19.27;46.68;100893.52;1778302;80;21115;-68
2022/05/06 06:22:38;;;;;;;4.20;3.80;;;;;;;19.28;46.70;100887.94;1777480;80;21066;-69
2022/05/06 06:25:07;;;;;;;4.55;4.15;;;;;;;19.29;46.71;100894.14;1777216;80;21413;-69
2022/05/06 06:27:36;;;;;;;4.50;4.10;;;;;;;19.31;46.70;100889.39;1778385;80;21058;-70
2022/05/06 06:30:06;;;;;;;3.95;3.25;;;;;;;19.33;46.73;100892.72;1777873;80;21034;-69
2022/05/06 06:32:34;;;;;;;4.92;4.42;;;;;;;19.34;46.76;100892.53;1778650;79;21163;-68
2022/05/06 06:35:02;;;;;;;4.28;3.87;;;;;;;19.35;46.79;100892.00;1778121;80;21565;-68
2022/05/06 06:37:32;;;;;;;4.67;4.28;;;;;;;19.36;46.79;100890.47;1775700;80;21022;-69
2022/05/06 06:40:00;;;;;;;4.45;4.05;;;;;;;19.39;46.84;100889.23;1778208;80;21089;-69
2022/05/06 06:42:27;;;;;;;4.70;4.20;;;;;;;19.40;46.84;100886.86;1777374;80;21549;-69
2022/05/06 06:44:55;;;;;;;4.53;4.12;;;;;;;19.41;46.84;100882.62;1776124;80;21462;-69
2022/05/06 06:47:26;;;;;;;4.55;4.03;;;;;;;19.44;46.86;100893.52;1766319;80;21045;-69
2022/05/06 06:50:08;;;;;;;4.40;4.00;;;;;;;19.46;46.89;100888.77;1776087;80;21498;-69
2022/05/06 06:52:47;;;;;;;5.05;4.30;;;;;;;19.47;46.92;100890.93;1775847;80;21010;-70
2022/05/06 06:55:13;;;;;;;4.85;3.90;;;;;;;19.48;46.97;100901.52;1778223;80;21542;-70
2022/05/06 06:57:40;;;;;;;4.83;4.30;;;;;;;19.50;46.99;100898.63;1778277;80;21115;-69
2022/05/06 07:00:08;;;;;;;4.90;4.37;;;;;;;19.51;47.03;100895.74;1777025;80;20975;-70
2022/05/06 07:02:36;;;;;;;4.62;4.22;;;;;;;19.53;47.04;100900.41;1778204;80;21574;-69
2022/05/06 07:05:04;;;;;;;5.05;4.37;;;;;;;19.55;47.07;100900.23;1778612;79;21033;-69
2022/05/06 07:13:00;;;;;;;4.53;4.10;;;;;;;19.58;47.17;100895.23;1778502;80;21451;-69
2022/05/06 07:15:29;;;;;;;4.55;3.83;;;;;;;19.60;47.13;100897.74;1777358;80;21077;-68
2022/05/06 07:17:56;;;;;;;4.12;3.70;;;;;;;19.62;47.16;100898.37;1779937;79;21026;-70
2022/05/06 07:20:22;;;;;;;4.37;3.98;;;;;;;19.63;47.11;100897.36;1761631;81;21040;-69
2022/05/06 07:22:49;;;;;;;5.40;4.22;;;;;;;19.63;47.10;100896.83;1773135;81;21207;-69
2022/05/06 07:25:16;;;;;;;4.20;3.80;;;;;;;19.66;47.07;100895.59;1761423;81;21036;-70
2022/05/06 07:27:43;;;;;;;4.50;4.10;;;;;;;19.68;47.02;100897.57;1773061;81;20999;-70
2022/05/06 07:30:11;;;;;;;4.12;3.70;;;;;;;19.70;47.03;100896.88;1792851;80;21494;-69
2022/05/06 07:32:38;;;;;;;4.25;3.85;;;;;;;19.71;47.06;100892.31;1791788;80;21488;-69
2022/05/06 07:35:07;;;;;;;4.15;3.75;;;;;;;19.74;47.10;100895.97;1792734;80;21187;-68
2022/05/06 07:37:34;;;;;;;4.15;3.72;;;;;;;19.74;47.10;100890.09;1782890;80;21025;-68
2022/05/06 07:40:04;;;;;;;3.75;3.27;;;;;;;19.76;47.08;100888.02;1792786;80;20986;-69
2022/05/06 07:42:31;;;;;;;3.80;3.50;;;;;;;19.78;47.12;100891.34;1790489;80;21016;-69
2022/05/06 07:44:58;;;;;;;4.00;3.60;;;;;;;19.80;47.13;100883.06;1790409;80;21028;-69
2022/05/06 07:47:25;;;;;;;3.83;3.52;;;;;;;19.82;47.19;100881.81;1790601;79;21078;-69
2022/05/06 07:49:52;;;;;;;4.30;3.90;;;;;;;19.84;47.20;100885.67;1779410;80;21032;-69
2022/05/06 07:52:19;;;;;;;3.90;3.50;;;;;;;19.87;47.27;100887.94;1761482;81;21533;-69
2022/05/06 07:54:45;;;;;;;3.85;3.40;;;;;;;19.88;47.22;100890.97;1761603;81;21469;-70
2022/05/06 07:57:11;;;;;;;3.85;3.40;;;;;;;19.90;47.21;100897.52;1742567;82;21058;-70
2022/05/06 07:59:38;;;;;;;4.28;3.80;;;;;;;19.92;47.20;100888.70;1761416;81;22242;-71
2022/05/06 08:04:50;;;;;;;3.70;3.30;;;;;;;19.96;47.27;100880.52;1790602;80;22028;-69
2022/05/06 08:07:17;;;;;;;4.45;3.95;;;;;;;19.97;47.22;100880.33;1773315;80;21076;-69
2022/05/06 08:09:43;;;;;;;4.55;4.15;;;;;;;19.99;47.19;100884.14;1761346;81;21041;-69
2022/05/06 08:12:11;;;;;;;4.20;3.65;;;;;;;20.00;47.12;100883.95;1761533;81;21233;-69
2022/05/06 08:14:37;;;;;;;4.22;3.83;;;;;;;20.02;47.21;100881.05;1761617;81;20973;-69
2022/05/06 08:17:04;;;;;;;4.65;3.80;;;;;;;20.03;47.18;100884.91;1761444;80;20998;-70
2022/05/06 08:19:31;;;;;;;3.83;3.47;;;;;;;20.05;47.15;100887.41;1742138;82;21112;-68
2022/05/06 08:21:58;;;;;;;4.05;3.25;;;;;;;20.07;47.15;100881.29;1741710;82;21034;-69
2022/05/06 08:24:24;;;;;;;3.60;3.30;;;;;;;20.08;47.22;100881.59;1742990;81;21589;-70
2022/05/06 08:26:52;;;;;;;3.90;3.50;;;;;;;20.11;47.27;100882.55;1758090;81;20986;-70
2022/05/06 08:29:18;;;;;;;4.05;3.33;;;;;;;20.14;47.25;100886.16;1758364;81;21000;-69
2022/05/06 08:31:44;;;;;;;3.98;3.22;;;;;;;20.15;47.22;100875.70;1758226;81;21020;-69
2022/05/06 08:34:12;;;;;;;4.00;3.50;;;;;;;20.17;47.20;100879.03;1758310;81;21080;-69
2022/05/06 08:36:41;;;;;;;3.65;3.33;;;;;;;20.19;47.13;100884.22;1758203;81;21127;-69
2022/05/06 08:39:08;;;;;;;4.83;4.40;;;;;;;20.20;47.10;100879.98;1788219;80;21493;-69
2022/05/06 08:41:38;;;;;;;4.83;3.47;;;;;;;20.23;47.09;100884.13;1756665;80;21010;-69
2022/05/06 08:52:34;;;;;;;3.50;3.10;;;;;;;20.31;46.90;100865.56;1758308;81;21579;-70
2022/05/06 08:55:02;;;;;;;3.47;3.17;;;;;;;20.33;46.95;100878.34;1757745;80;21036;-72
2022/05/06 08:57:29;;;;;;;3.62;3.00;;;;;;;20.34;46.86;100867.84;1759140;80;21064;-69
2022/05/06 08:59:56;;;;;;;3.85;3.47;;;;;;;20.36;46.87;100864.45;1758266;81;21542;-70
2022/05/06 09:02:22;;;;;;;3.45;2.70;;;;;;;20.39;46.86;100858.62;1758194;81;21056;-71
2022/05/06 09:04:49;;;;;;;3.60;3.20;;;;;;;20.40;47.01;100856.25;1758031;81;21004;-69
2022/05/06 09:07:23;;;;;;;4.50;3.52;;;;;;;20.43;46.97;100856.64;1758150;81;21005;-70
2022/05/06 09:10:16;;;;;;;3.00;2.70;;;;;;;20.46;47.04;100862.17;1758093;81;21025;-69
2022/05/06 09:12:46;;;;;;;3.70;3.40;;;;;;;20.49;47.11;100863.61;1758377;81;21020;-69
2022/05/06 09:18:00;;;;;;;3.25;2.95;;;;;;;20.54;47.23;100854.39;1758046;80;21512;-69
2022/05/06 09:20:27;;;;;;;3.47;2.95;;;;;;;20.56;47.29;100848.27;1763249;81;21553;-71
2022/05/06 09:22:55;;;;;;;3.90;3.12;;;;;;;20.59;47.13;100855.92;1763848;81;20992;-70
2022/05/06 09:25:38;;;;;;;3.37;3.08;;;;;;;20.62;46.95;100845.58;1763833;81;21032;-69
2022/05/06 09:28:07;;;;;;;3.45;2.80;;;;;;;20.66;46.74;100846.00;1763685;81;21237;-69
2022/05/06 09:30:34;;;;;;;3.08;2.77;;;;;;;20.69;46.75;100845.59;1764102;81;21028;-70
2022/05/06 09:33:01;;;;;;;3.50;3.20;;;;;;;20.73;46.91;100852.77;1764831;80;21063;-69
2022/05/06 09:35:31;;;;;;;3.47;3.17;;;;;;;20.76;46.91;100849.11;1763841;81;20989;-70
2022/05/06 09:37:57;;;;;;;3.25;2.95;;;;;;;20.81;46.92;100844.45;1778942;80;21055;-68
2022/05/06 09:40:30;;;;;;;3.08;2.77;;;;;;;20.86;47.14;100847.36;1795230;80;21145;-69
2022/05/06 09:42:59;;;;;;;3.42;2.72;;;;;;;20.89;47.05;100836.13;1795153;80;21040;-70
2022/05/06 09:45:35;;;;;;;3.08;2.77;;;;;;;20.95;47.12;100834.45;1795174;80;21053;-69
2022/05/06 09:48:03;;;;;;;3.27;2.98;;;;;;;21.00;47.11;100834.14;1792997;80;20989;-70
2022/05/06 09:50:38;;;;;;;3.42;3.12;;;;;;;21.05;47.22;100831.33;1764243;81;21020;-70
2022/05/06 09:53:12;;;;;;;3.45;2.70;;;;;;;21.10;47.19;100839.11;1763926;81;21149;-69
2022/05/06 09:55:42;;;;;;;3.52;2.80;;;;;;;21.17;47.24;100843.13;1764096;81;21070;-68
2022/05/06 09:58:08;;;;;;;3.25;2.95;;;;;;;21.21;47.25;100838.47;1763786;81;21547;-69
2022/05/06 10:00:35;;;;;;;4.37;3.35;;;;;;;21.29;47.12;100837.41;1763802;81;21073;-69
2022/05/06 10:03:02;;;;;;;3.05;2.75;;;;;;;21.35;47.20;100842.48;1763743;81;21040;-69
2022/05/06 10:05:29;;;;;;;3.42;3.12;;;;;;;21.40;47.06;100834.05;1765063;80;21253;-69
2022/05/06 10:08:13;;;;;;;3.22;2.92;;;;;;;21.47;47.06;100825.94;1763736;81;20992;-68
2022/05/06 10:10:46;;;;;;;3.00;2.70;;;;;;;21.54;46.92;100829.98;1763830;81;21084;-69
2022/05/06 10:13:19;;;;;;;3.10;2.80;;;;;;;21.63;46.84;100840.02;1758656;81;21079;-69
2022/05/06 10:15:50;;;;;;;3.22;2.90;;;;;;;21.68;46.76;100830.22;1763880;81;21000;-70
2022/05/06 10:18:34;;;;;;;2.70;2.50;;;;;;;21.76;46.66;100836.73;1763788;80;21146;-68
2022/05/06 10:21:02;;;;;;;3.35;3.05;;;;;;;21.83;46.48;100826.39;1757988;81;21021;-69
2022/05/06 10:23:50;;;;;;;3.27;2.60;;;;;;;21.90;46.40;100826.67;1759203;80;21072;-68
2022/05/06 10:26:47;;;;;;;3.17;2.87;;;;;;;21.98;46.36;100825.58;1758226;81;21033;-68
2022/05/06 10:32:37;;;;;;;2.80;2.60;;;;;;;22.14;46.18;100814.26;1739184;81;22186;-68
2022/05/06 10:35:08;;;;;;;2.75;2.55;;;;;;;22.23;46.13;100813.45;1733495;81;21031;-69
2022/05/06 10:37:40;;;;;;;3.35;2.40;;;;;;;22.29;46.10;100807.22;1767955;80;21025;-69
2022/05/06 10:40:30;;;;;;;3.08;2.80;;;;;;;22.38;46.06;100806.41;1762885;80;20983;-69
2022/05/06 10:42:57;;;;;;;3.10;2.80;;;;;;;22.45;46.04;100799.61;1747500;82;21021;-69
2022/05/06 10:45:35;;;;;;;3.42;2.60;;;;;;;22.53;46.00;100801.49;1747763;82;21748;-69
2022/05/06 10:48:01;;;;;;;2.77;2.20;;;;;;;22.61;46.00;100796.86;1747429;81;21041;-69
2022/05/06 10:50:39;;;;;;;2.45;2.25;;;;;;;22.69;45.96;100791.16;1747586;82;21541;-68
2022/05/06 10:53:05;;;;;;;2.45;2.25;;;;;;;22.77;45.92;100786.80;1747670;82;21041;-69
2022/05/06 10:55:33;;;;;;;2.72;2.47;;;;;;;22.87;45.91;100802.03;1747731;82;21158;-68
2022/05/06 10:58:03;;;;;;;3.27;2.98;;;;;;;22.94;45.86;100798.70;1748547;80;21146;-69
2022/05/06 11:00:32;;;;;;;2.70;2.50;;;;;;;23.03;45.84;100793.05;1747553;82;20998;-69
2022/05/06 11:02:59;;;;;;;2.95;2.42;;;;;;;23.10;45.82;100784.30;1747594;81;21093;-69
2022/05/06 11:05:29;;;;;;;2.62;2.42;;;;;;;23.20;45.79;100781.91;1777644;80;21008;-69
2022/05/06 11:07:58;;;;;;;2.75;2.55;;;;;;;23.27;45.76;100783.99;1778318;80;21521;-70
2022/05/06 11:10:28;;;;;;;2.58;2.37;;;;;;;23.35;45.73;100782.35;1778373;79;22056;-70
2022/05/06 11:12:59;;;;;;;2.42;2.22;;;;;;;23.46;45.70;100777.20;1777117;79;21022;-68
2022/05/06 11:15:31;;;;;;;2.83;2.60;;;;;;;23.52;45.63;100777.11;1747506;82;21053;-68
2022/05/06 11:18:04;;;;;;;2.85;2.65;;;;;;;23.61;45.61;100772.21;1747539;81;21057;-69
2022/05/06 11:20:37;;;;;;;2.70;2.50;;;;;;;23.69;45.60;100769.70;1758457;81;21489;-68
2022/05/06 11:23:13;;;;;;;2.55;2.25;;;;;;;23.78;45.56;100766.13;1764042;81;21087;-69
2022/05/06 11:25:45;;;;;;;2.30;2.10;;;;;;;23.85;45.52;100760.94;1763811;81;21557;-68
2022/05/06 11:28:15;;;;;;;2.60;2.40;;;;;;;23.94;45.46;100758.20;1764440;81;21577;-69
2022/05/06 11:30:46;;;;;;;2.70;2.50;;;;;;;24.02;45.42;100752.14;1764193;81;20997;-68
2022/05/06 11:33:25;;;;;;;2.30;2.10;;;;;;;24.11;45.35;100755.64;1763993;81;21053;-68
2022/05/06 11:36:04;;;;;;;2.47;2.27;;;;;;;24.21;45.30;100750.18;1764466;81;21190;-71
2022/05/06 11:38:36;;;;;;;2.62;2.40;;;;;;;24.29;45.25;100745.75;1785959;80;20989;-69
2022/05/06 11:41:11;;;;;;;2.15;1.95;;;;;;;24.39;45.21;100739.20;1762676;81;21012;-68
2022/05/06 11:43:41;;;;;;;2.25;2.05;;;;;;;24.49;45.20;100746.76;1795273;80;21045;-70
2022/05/06 11:49:04;;;;;;;4.90;2.70;;;;;;;24.68;45.08;100736.09;1745506;81;21106;-69
2022/05/06 11:51:38;;;;;;;2.35;2.15;;;;;;;24.80;44.99;100729.31;1763875;81;21472;-70
2022/05/06 11:54:05;;;;;;;2.40;2.20;;;;;;;24.90;44.96;100721.91;1755887;81;21042;-68
2022/05/06 11:56:32;;;;;;;2.27;2.05;;;;;;;25.01;44.90;100736.53;1764022;81;20988;-68
2022/05/06 11:58:59;;;;;;;2.27;2.08;;;;;;;25.12;44.82;100720.19;1763852;81;21564;-69
2022/05/06 12:01:33;;;;;;;2.50;2.30;;;;;;;25.22;44.75;100712.80;1763916;81;21132;-68
2022/05/06 12:04:04;;;;;;;2.50;2.30;;;;;;;25.33;44.71;100711.66;1765964;80;21021;-70
2022/05/06 12:06:37;;;;;;;2.17;1.98;;;;;;;25.44;44.63;100712.11;1762264;81;21020;-69
2022/05/06 12:09:14;;;;;;;2.27;2.08;;;;;;;25.56;44.56;100717.53;1795084;80;20989;-69
2022/05/06 12:11:42;;;;;;;2.15;2.05;;;;;;;25.64;44.47;100710.33;1795566;80;21016;-69
2022/05/06 12:14:12;;;;;;;2.37;2.17;;;;;;;25.74;44.40;100709.14;1795779;79;21351;-69
2022/05/06 12:16:56;;;;;;;2.02;1.87;;;;;;;25.83;44.33;100704.95;1795604;80;21024;-69
2022/05/06 12:19:39;;;;;;;2.20;2.00;;;;;;;25.92;44.30;100705.38;1795329;79;21004;-69
2022/05/06 12:22:14;;;;;;;2.50;2.30;;;;;;;26.03;44.21;100702.30;1790706;80;20981;-69